Current Weather

Scottsdale

Scottsdale, Arizona (KSDL)

Report from: Tuesday, June 18, 2024 3:53 AM MST
Current time: Tuesday, June 18, 2024 4:09 AM MST

Nearby weather – Weather history – Daily summaries
Weather forecast

Temperature26.7°C (80.1°F)
Heat index26.3°C (79.3°F)
Dew point3.3°C (37.9°F)
Winds 3 kts (1.5 m/s, 3.5 mph) Southeast (140°)
Visibility10 mi. (16.1 km)
Clouds Sky clear
Altimeter29.63 in.Hg (1003 mB)
Relative humidity22 %
Density altitude1,904 ft. (580 m)
Sea-level pressure100.0 kPa (1000 mB, 29.54 in.Hg)
Remarks Fully automated report
Automated weather observing station with precipitation discriminator
Flight conditions Visual Meteorological Conditions
Raw dataKSDL 181053Z AUTO 14003KT 10SM CLR 27/03 A2963 RMK AO2 SLP003 T02670033
An error has occurred. This application may no longer respond until reloaded. Reload 🗙